createdAt,value
2017-11-07T00:00:03.558Z,76.25
2017-11-07T00:02:34.880Z,76.36
2017-11-07T00:05:06.543Z,76.40
2017-11-07T00:07:37.885Z,76.74
2017-11-07T00:10:09.868Z,76.99
2017-11-07T00:12:41.497Z,77.10
2017-11-07T00:15:12.788Z,76.85
2017-11-07T00:17:44.163Z,76.60
2017-11-07T00:20:15.749Z,76.64
2017-11-07T00:22:47.044Z,76.67
2017-11-07T00:25:19.648Z,76.58
2017-11-07T00:27:50.987Z,76.50
2017-11-07T00:30:22.337Z,76.54
2017-11-07T00:32:53.846Z,76.56
2017-11-07T00:35:25.117Z,76.53
2017-11-07T00:37:57.891Z,76.62
2017-11-07T00:40:29.280Z,76.58
2017-11-07T00:43:00.964Z,76.47
2017-11-07T00:45:32.297Z,76.56
2017-11-07T00:48:04.720Z,76.63
2017-11-07T00:50:36.432Z,76.65
2017-11-07T00:53:07.725Z,76.62
2017-11-07T00:55:39.022Z,76.67
2017-11-07T00:58:10.643Z,76.76
2017-11-07T01:00:41.952Z,76.72
2017-11-07T01:03:13.239Z,76.80
2017-11-07T01:05:45.051Z,77.10
2017-11-07T01:08:16.337Z,77.11
2017-11-07T01:10:47.757Z,76.96
2017-11-07T01:13:19.401Z,77.01
2017-11-07T01:15:50.819Z,77.11
2017-11-07T01:18:22.149Z,76.98
2017-11-07T01:20:54.501Z,76.95
2017-11-07T01:23:25.917Z,76.90
2017-11-07T01:25:57.356Z,76.86
2017-11-07T01:28:29.114Z,76.99
2017-11-07T01:31:00.431Z,76.93
2017-11-07T01:33:31.729Z,76.93
2017-11-07T01:36:04.476Z,76.83
2017-11-07T01:38:35.828Z,76.83
2017-11-07T01:41:07.417Z,76.84
2017-11-07T01:43:38.763Z,76.82
2017-11-07T01:46:10.090Z,76.87
2017-11-07T01:48:41.360Z,76.99
2017-11-07T01:51:13.030Z,77.01
2017-11-07T01:53:44.617Z,77.04
2017-11-07T01:56:15.939Z,77.21
2017-11-07T01:58:47.709Z,77.16
2017-11-07T02:01:19.076Z,76.99
2017-11-07T02:03:50.701Z,76.99
2017-11-07T02:06:22.615Z,76.93
2017-11-07T02:08:54.082Z,76.89
2017-11-07T02:11:25.608Z,76.95
2017-11-07T02:13:57.264Z,76.80
2017-11-07T02:16:28.662Z,76.54
2017-11-07T02:19:00.053Z,76.28
2017-11-07T02:21:31.739Z,76.30
2017-11-07T02:24:04.972Z,76.33
2017-11-07T02:26:36.366Z,75.88
2017-11-07T02:29:08.127Z,75.40
2017-11-07T02:31:39.500Z,74.99
2017-11-07T02:34:10.848Z,74.99
2017-11-07T02:36:42.785Z,74.75
2017-11-07T02:39:14.882Z,74.55
2017-11-07T02:41:46.337Z,74.33
2017-11-07T02:44:18.137Z,74.36
2017-11-07T02:46:49.489Z,74.62
2017-11-07T02:49:20.845Z,74.64
2017-11-07T02:51:52.545Z,74.57
2017-11-07T02:54:23.830Z,74.59
2017-11-07T02:56:55.167Z,74.88
2017-11-07T02:59:26.530Z,74.93
2017-11-07T03:01:58.157Z,74.68
2017-11-07T03:04:29.451Z,74.80
2017-11-07T03:07:00.916Z,74.69
2017-11-07T03:09:32.548Z,74.76
2017-11-07T03:12:05.125Z,74.67
2017-11-07T03:14:36.766Z,74.79
2017-11-07T03:17:08.897Z,74.63
2017-11-07T03:19:40.187Z,74.71
2017-11-07T03:22:12.028Z,74.51
2017-11-07T03:24:43.337Z,74.79
2017-11-07T03:27:15.026Z,74.92
2017-11-07T03:29:46.369Z,75.05
2017-11-07T03:32:17.694Z,74.86
2017-11-07T03:34:49.049Z,74.74
2017-11-07T03:37:20.362Z,74.73
2017-11-07T03:39:52.008Z,75.04
2017-11-07T03:42:23.289Z,75.09
2017-11-07T03:44:54.601Z,75.34
2017-11-07T03:47:26.599Z,75.39
2017-11-07T03:49:58.259Z,75.50
2017-11-07T03:52:29.880Z,75.54
2017-11-07T03:55:01.441Z,75.71
2017-11-07T03:57:32.828Z,75.88
2017-11-07T04:00:05.695Z,75.90
2017-11-07T04:02:37.221Z,75.78
2017-11-07T04:05:08.498Z,75.68
2017-11-07T04:07:40.298Z,75.80
2017-11-07T04:10:11.604Z,75.87
2017-11-07T04:12:42.911Z,75.92
2017-11-07T04:15:14.404Z,75.97
2017-11-07T04:17:46.193Z,75.86
2017-11-07T04:20:17.484Z,75.81
2017-11-07T04:22:49.023Z,75.63
2017-11-07T04:25:20.314Z,75.58
2017-11-07T04:27:53.120Z,75.45
2017-11-07T04:30:24.408Z,75.41
2017-11-07T04:32:56.618Z,75.48
2017-11-07T04:35:28.449Z,75.51
2017-11-07T04:37:59.837Z,75.38
2017-11-07T04:40:31.131Z,75.14
2017-11-07T04:43:03.838Z,74.81
2017-11-07T04:45:35.137Z,74.90
2017-11-07T04:48:06.544Z,75.10
2017-11-07T04:50:38.294Z,75.25
2017-11-07T04:53:09.649Z,75.21
2017-11-07T04:55:40.932Z,75.42
2017-11-07T04:58:12.649Z,75.25
2017-11-07T05:00:43.964Z,75.27
2017-11-07T05:03:15.560Z,75.27
2017-11-07T05:05:46.938Z,75.30
2017-11-07T05:08:18.257Z,75.24
2017-11-07T05:10:50.074Z,75.27
2017-11-07T05:13:21.389Z,75.33
2017-11-07T05:15:52.684Z,75.27
2017-11-07T05:18:23.981Z,75.01
2017-11-07T05:20:56.471Z,74.90
2017-11-07T05:23:27.772Z,74.97
2017-11-07T05:25:59.536Z,75.14
2017-11-07T05:28:30.840Z,75.43
2017-11-07T05:31:03.592Z,75.09
2017-11-07T05:33:35.307Z,74.93
2017-11-07T05:36:06.620Z,74.98
2017-11-07T05:38:37.944Z,75.19
2017-11-07T05:41:10.584Z,75.05
2017-11-07T05:43:42.045Z,75.29
2017-11-07T05:46:13.442Z,75.73
2017-11-07T05:48:45.215Z,75.63
2017-11-07T05:51:16.619Z,75.59
2017-11-07T05:53:47.998Z,75.64
2017-11-07T05:56:19.699Z,75.41
2017-11-07T05:58:51.681Z,75.31
2017-11-07T06:01:23.392Z,75.54
2017-11-07T06:03:54.713Z,75.54
2017-11-07T06:06:26.033Z,75.47
2017-11-07T06:08:58.492Z,75.40
2017-11-07T06:11:29.832Z,75.28
2017-11-07T06:14:01.563Z,75.28
2017-11-07T06:16:32.963Z,75.40
2017-11-07T06:19:04.764Z,75.28
2017-11-07T06:21:36.395Z,75.48
2017-11-07T06:24:07.850Z,75.49
2017-11-07T06:26:39.256Z,75.47
2017-11-07T06:29:10.882Z,75.49
2017-11-07T06:31:42.236Z,75.47
2017-11-07T06:34:13.852Z,75.47
2017-11-07T06:36:45.128Z,75.35
2017-11-07T06:39:16.435Z,75.31
2017-11-07T06:41:48.082Z,74.81
2017-11-07T06:44:19.667Z,74.61
2017-11-07T06:46:51.146Z,74.59
2017-11-07T06:49:22.759Z,74.74
2017-11-07T06:51:54.059Z,74.66
2017-11-07T06:54:25.633Z,74.83
2017-11-07T06:56:57.010Z,74.61
2017-11-07T06:59:28.542Z,74.82
2017-11-07T07:02:00.187Z,74.76
2017-11-07T07:04:31.492Z,74.58
2017-11-07T07:07:02.962Z,74.20
2017-11-07T07:09:34.575Z,74.16
2017-11-07T07:14:32.920Z,73.98
2017-11-07T07:17:04.844Z,73.77
2017-11-07T07:19:36.387Z,73.65
2017-11-07T07:22:08.080Z,73.40
2017-11-07T07:24:39.426Z,73.64
2017-11-07T07:27:10.755Z,73.28
2017-11-07T07:29:42.398Z,72.91
2017-11-07T07:32:13.771Z,72.96
2017-11-07T07:34:45.233Z,72.85
2017-11-07T07:37:16.891Z,72.93
2017-11-07T07:39:48.365Z,72.68
2017-11-07T07:42:20.184Z,72.22
2017-11-07T07:44:51.836Z,71.96
2017-11-07T07:47:23.164Z,71.99
2017-11-07T07:49:54.796Z,71.92
2017-11-07T07:52:26.234Z,71.62
2017-11-07T07:54:57.558Z,71.69
2017-11-07T07:57:28.898Z,71.69
2017-11-07T08:00:00.219Z,71.48
2017-11-07T08:02:31.893Z,71.33
2017-11-07T08:05:04.233Z,71.09
2017-11-07T08:07:35.639Z,71.08
2017-11-07T08:10:07.264Z,71.30
2017-11-07T08:12:38.622Z,71.08
2017-11-07T08:15:10.050Z,70.95
2017-11-07T08:17:41.717Z,70.81
2017-11-07T08:20:13.617Z,70.30
2017-11-07T08:22:45.585Z,70.36
2017-11-07T08:25:16.894Z,70.12
2017-11-07T08:27:48.301Z,69.88
2017-11-07T08:30:20.853Z,69.63
2017-11-07T08:32:52.710Z,69.75
2017-11-07T08:35:24.434Z,69.79
2017-11-07T08:37:55.833Z,69.38
2017-11-07T08:40:28.384Z,69.05
2017-11-07T08:42:59.860Z,69.39
2017-11-07T08:45:31.386Z,69.23
2017-11-07T08:48:04.539Z,69.03
2017-11-07T08:50:35.894Z,69.06
2017-11-07T08:53:07.534Z,68.41
2017-11-07T08:55:39.004Z,68.31
2017-11-07T08:58:10.370Z,68.28
2017-11-07T09:00:42.007Z,68.14
2017-11-07T09:03:13.355Z,68.12
2017-11-07T09:05:44.705Z,67.75
2017-11-07T09:08:16.376Z,67.75
2017-11-07T09:10:47.742Z,67.57
2017-11-07T09:13:19.381Z,67.25
2017-11-07T09:15:50.997Z,66.96
2017-11-07T09:18:22.566Z,66.82
2017-11-07T09:20:54.345Z,66.46
2017-11-07T09:23:25.744Z,66.07
2017-11-07T09:25:57.038Z,65.91
2017-11-07T09:28:28.696Z,65.97
2017-11-07T09:31:01.867Z,66.02
2017-11-07T09:33:33.544Z,65.69
2017-11-07T09:36:06.452Z,65.36
2017-11-07T09:38:37.795Z,64.73
2017-11-07T09:41:09.378Z,63.84
2017-11-07T09:43:40.720Z,63.91
2017-11-07T09:46:12.669Z,63.32
2017-11-07T09:48:43.978Z,62.71
2017-11-07T09:51:15.308Z,62.67
2017-11-07T09:53:46.916Z,61.78
2017-11-07T09:56:18.230Z,60.96
2017-11-07T09:58:49.729Z,58.83
2017-11-07T10:01:21.454Z,54.67
2017-11-07T10:03:52.824Z,53.42
2017-11-07T10:06:24.470Z,51.76
2017-11-07T10:08:56.295Z,51.85
2017-11-07T10:11:27.610Z,53.27
2017-11-07T10:13:59.263Z,54.87
2017-11-07T10:16:30.600Z,56.37
2017-11-07T10:19:02.529Z,57.33
2017-11-07T10:21:34.194Z,58.80
2017-11-07T10:24:06.811Z,60.00
2017-11-07T10:26:38.437Z,60.46
2017-11-07T10:29:09.971Z,60.32
2017-11-07T10:31:41.288Z,60.43
2017-11-07T10:34:12.944Z,60.36
2017-11-07T10:36:44.317Z,59.96
2017-11-07T10:39:15.672Z,59.92
2017-11-07T10:41:47.295Z,60.37
2017-11-07T10:44:18.661Z,59.49
2017-11-07T10:46:50.219Z,58.92
2017-11-07T10:49:21.868Z,58.75
2017-11-07T10:51:53.367Z,58.66
2017-11-07T10:54:24.732Z,58.50
2017-11-07T10:56:57.157Z,58.15
2017-11-07T10:59:28.495Z,58.05
2017-11-07T11:02:00.096Z,57.14
2017-11-07T11:04:31.439Z,55.88
2017-11-07T11:07:03.840Z,54.31
2017-11-07T11:09:35.548Z,47.72
2017-11-07T11:12:07.016Z,43.67
2017-11-07T11:14:38.443Z,42.49
2017-11-07T11:17:10.016Z,41.86
2017-11-07T11:19:41.340Z,40.35
2017-11-07T11:22:12.921Z,42.06
2017-11-07T11:24:44.291Z,43.14
2017-11-07T11:27:15.651Z,44.91
2017-11-07T11:29:47.458Z,46.32
2017-11-07T11:32:18.793Z,47.20
2017-11-07T11:34:50.336Z,48.07
2017-11-07T11:37:21.964Z,48.25
2017-11-07T11:39:54.405Z,48.28
2017-11-07T11:42:25.995Z,48.17
2017-11-07T11:44:57.302Z,49.03
2017-11-07T11:47:28.600Z,50.32
2017-11-07T11:50:00.255Z,51.87
2017-11-07T11:52:31.622Z,53.68
2017-11-07T11:55:04.153Z,55.14
2017-11-07T11:57:35.905Z,56.21
2017-11-07T12:00:07.776Z,56.88
2017-11-07T12:02:39.150Z,57.50
2017-11-07T12:05:11.021Z,58.27
2017-11-07T12:07:42.563Z,58.90
2017-11-07T12:10:13.985Z,59.69
2017-11-07T12:12:45.833Z,59.96
2017-11-07T12:15:17.181Z,60.44
2017-11-07T12:17:48.771Z,60.26
2017-11-07T12:20:20.202Z,60.15
2017-11-07T12:22:51.865Z,60.43
2017-11-07T12:25:23.536Z,60.14
2017-11-07T12:27:56.429Z,60.11
2017-11-07T12:30:28.049Z,59.99
2017-11-07T12:32:59.950Z,60.10
2017-11-07T12:35:31.338Z,60.13
2017-11-07T12:38:04.908Z,60.31
2017-11-07T12:40:36.663Z,60.06
2017-11-07T12:43:07.999Z,59.57
2017-11-07T12:45:39.686Z,59.36
2017-11-07T12:48:10.997Z,59.02
2017-11-07T12:52:00.027Z,59.00
2017-11-07T12:54:31.400Z,59.56
2017-11-07T12:57:05.487Z,59.31
2017-11-07T12:59:37.202Z,59.85
2017-11-07T13:02:08.796Z,60.21
2017-11-07T13:04:40.440Z,60.21
2017-11-07T13:07:12.396Z,60.50
2017-11-07T13:09:43.986Z,60.55
2017-11-07T13:12:15.316Z,60.35
2017-11-07T13:14:46.672Z,60.27
2017-11-07T13:17:18.164Z,59.90
2017-11-07T13:19:49.471Z,60.06
2017-11-07T13:22:21.200Z,60.17
2017-11-07T13:24:53.449Z,60.32
2017-11-07T13:27:25.066Z,60.41
2017-11-07T13:29:56.383Z,60.42
2017-11-07T13:32:27.717Z,60.48
2017-11-07T13:34:59.500Z,60.76
2017-11-07T13:37:30.813Z,61.03
2017-11-07T13:40:04.239Z,61.39
2017-11-07T13:42:36.013Z,61.58
2017-11-07T13:45:07.332Z,61.87
2017-11-07T13:47:38.634Z,62.03
2017-11-07T13:50:09.919Z,62.01
2017-11-07T13:52:41.398Z,61.88
2017-11-07T13:55:12.790Z,62.03
2017-11-07T13:57:44.936Z,62.29
2017-11-07T14:00:16.269Z,62.26
2017-11-07T14:02:47.861Z,61.93
2017-11-07T14:05:19.162Z,62.20
2017-11-07T14:07:50.605Z,62.53
2017-11-07T14:10:22.205Z,62.58
2017-11-07T14:12:53.565Z,62.35
2017-11-07T14:15:24.888Z,62.19
2017-11-07T14:17:56.743Z,62.35
2017-11-07T14:20:28.110Z,62.19
2017-11-07T14:22:59.748Z,62.05
2017-11-07T14:25:31.061Z,61.76
2017-11-07T14:28:03.478Z,61.39
2017-11-07T14:30:35.101Z,60.97
2017-11-07T14:33:06.494Z,60.88
2017-11-07T14:35:37.860Z,61.21
2017-11-07T14:38:10.445Z,61.34
2017-11-07T14:40:41.734Z,61.40
2017-11-07T14:43:13.606Z,61.61
2017-11-07T14:45:44.967Z,61.80
2017-11-07T14:48:16.329Z,62.29
2017-11-07T14:50:48.166Z,63.25
2017-11-07T14:53:19.512Z,63.69
2017-11-07T14:55:50.944Z,63.89
2017-11-07T14:58:22.543Z,64.29
2017-11-07T15:00:53.926Z,64.51
2017-11-07T15:03:25.256Z,64.83
2017-11-07T15:05:56.966Z,65.08
2017-11-07T15:08:28.636Z,65.33
2017-11-07T15:10:59.966Z,65.42
2017-11-07T15:13:31.580Z,65.48
2017-11-07T15:16:06.284Z,65.66
2017-11-07T15:18:37.593Z,65.69
2017-11-07T15:21:08.933Z,65.89
2017-11-07T15:23:40.291Z,66.01
2017-11-07T15:26:12.059Z,66.05
2017-11-07T15:28:43.421Z,66.21
2017-11-07T15:31:15.949Z,66.30
2017-11-07T15:33:47.333Z,66.51
2017-11-07T15:36:18.659Z,66.43
2017-11-07T15:38:50.776Z,66.57
2017-11-07T15:41:22.398Z,66.73
2017-11-07T15:43:54.336Z,66.96
2017-11-07T15:46:26.214Z,67.02
2017-11-07T15:48:57.785Z,67.09
2017-11-07T15:51:29.485Z,67.07
2017-11-07T15:54:00.996Z,67.14
2017-11-07T15:56:32.395Z,67.08
2017-11-07T15:59:04.965Z,67.07
2017-11-07T16:01:36.366Z,67.21
2017-11-07T16:04:08.132Z,67.33
2017-11-07T16:06:39.467Z,67.32
2017-11-07T16:09:10.809Z,67.52
2017-11-07T16:11:42.442Z,67.44
2017-11-07T16:14:13.794Z,67.53
2017-11-07T16:16:45.185Z,67.74
2017-11-07T16:19:16.843Z,67.99
2017-11-07T16:21:48.193Z,68.45
2017-11-07T16:24:19.517Z,69.19
2017-11-07T16:26:50.976Z,69.61
2017-11-07T16:29:22.556Z,70.09
2017-11-07T16:31:53.872Z,70.03
2017-11-07T16:34:25.211Z,70.00
2017-11-07T16:36:56.581Z,70.09
2017-11-07T16:39:27.911Z,69.94
2017-11-07T16:41:59.535Z,70.00
2017-11-07T16:44:30.845Z,69.97
2017-11-07T16:47:02.722Z,70.03
2017-11-07T16:49:36.740Z,69.99
2017-11-07T16:52:08.063Z,69.92
2017-11-07T16:54:39.710Z,69.99
2017-11-07T16:57:11.028Z,70.24
2017-11-07T16:59:42.356Z,70.21
2017-11-07T17:02:14.014Z,70.13
2017-11-07T17:04:45.370Z,70.13
2017-11-07T17:07:16.696Z,70.16
2017-11-07T17:09:48.333Z,70.28
2017-11-07T17:12:20.033Z,70.38
2017-11-07T17:14:51.860Z,70.52
2017-11-07T17:17:23.196Z,70.40
2017-11-07T17:19:54.528Z,70.62
2017-11-07T17:22:26.109Z,70.99
2017-11-07T17:24:57.447Z,71.12
2017-11-07T17:27:28.813Z,70.88
2017-11-07T17:30:00.429Z,70.84
2017-11-07T17:32:32.876Z,70.73
2017-11-07T17:35:05.268Z,71.04
2017-11-07T17:37:36.880Z,71.05
2017-11-07T17:40:08.241Z,71.18
2017-11-07T17:42:39.672Z,71.30
2017-11-07T17:45:11.299Z,71.03
2017-11-07T17:47:42.800Z,71.05
2017-11-07T17:50:14.176Z,71.15
2017-11-07T17:52:45.856Z,71.17
2017-11-07T17:55:17.340Z,71.32
2017-11-07T17:57:48.950Z,71.34
2017-11-07T18:00:21.092Z,71.47
2017-11-07T18:02:53.869Z,71.71
2017-11-07T18:05:25.324Z,71.71
2017-11-07T18:07:58.009Z,71.72
2017-11-07T18:10:29.628Z,71.87
2017-11-07T18:13:01.233Z,71.88
2017-11-07T18:15:32.871Z,71.93
2017-11-07T18:18:05.591Z,71.98
2017-11-07T18:20:37.578Z,72.12
2017-11-07T18:23:09.204Z,72.10
2017-11-07T18:25:40.627Z,72.10
2017-11-07T18:28:12.704Z,71.94
2017-11-07T18:30:44.301Z,71.84
2017-11-07T18:33:15.840Z,71.75
2017-11-07T18:35:47.656Z,71.94
2017-11-07T18:38:19.743Z,71.86
2017-11-07T18:40:51.950Z,72.19
2017-11-07T18:43:23.652Z,72.08
2017-11-07T18:45:55.190Z,72.08
2017-11-07T18:48:26.645Z,72.22
2017-11-07T18:50:58.353Z,72.26
2017-11-07T18:53:29.734Z,72.24
2017-11-07T18:56:01.388Z,72.51
2017-11-07T18:58:33.000Z,72.83
2017-11-07T19:01:06.911Z,73.03
2017-11-07T19:03:38.547Z,73.20
2017-11-07T19:06:10.331Z,73.23
2017-11-07T19:08:41.827Z,73.19
2017-11-07T19:11:13.496Z,73.44
2017-11-07T19:13:44.918Z,73.68
2017-11-07T19:16:16.673Z,74.01
2017-11-07T19:18:48.477Z,74.22
2017-11-07T19:21:20.088Z,74.12
2017-11-07T19:23:51.563Z,73.98
2017-11-07T19:26:22.886Z,74.01
2017-11-07T19:28:55.034Z,73.94
2017-11-07T19:31:26.380Z,73.64
2017-11-07T19:33:57.795Z,73.45
2017-11-07T19:36:29.401Z,73.52
2017-11-07T19:39:01.093Z,73.51
2017-11-07T19:41:32.651Z,73.63
2017-11-07T19:44:06.804Z,73.63
2017-11-07T19:46:38.160Z,73.74
2017-11-07T19:49:09.822Z,73.45
2017-11-07T19:51:41.181Z,73.36
2017-11-07T19:54:12.513Z,73.43
2017-11-07T19:56:44.145Z,73.63
2017-11-07T19:59:15.456Z,73.65
2017-11-07T20:01:46.904Z,73.44
2017-11-07T20:04:18.549Z,73.46
2017-11-07T20:06:50.416Z,73.46
2017-11-07T20:12:03.067Z,73.28
2017-11-07T20:14:39.801Z,73.14
2017-11-07T20:17:11.647Z,73.20
2017-11-07T20:19:42.995Z,73.30
2017-11-07T20:22:14.631Z,73.47
2017-11-07T20:24:46.014Z,73.45
2017-11-07T20:27:17.729Z,73.41
2017-11-07T20:29:50.616Z,73.44
2017-11-07T20:32:21.950Z,73.51
2017-11-07T20:34:54.877Z,73.39
2017-11-07T20:37:26.490Z,73.35
2017-11-07T20:39:58.225Z,73.28
2017-11-07T20:42:29.688Z,73.03
2017-11-07T20:45:01.423Z,72.95
2017-11-07T20:47:33.205Z,72.89
2017-11-07T20:50:05.670Z,73.05
2017-11-07T20:52:37.265Z,73.19
2017-11-07T20:55:08.595Z,73.14
2017-11-07T20:57:39.974Z,73.13
2017-11-07T21:00:11.644Z,73.18
2017-11-07T21:02:42.981Z,73.31
2017-11-07T21:05:14.989Z,73.46
2017-11-07T21:07:46.593Z,73.58
2017-11-07T21:10:17.912Z,73.45
2017-11-07T21:12:49.654Z,73.43
2017-11-07T21:15:21.026Z,73.49
2017-11-07T21:17:52.518Z,73.36
2017-11-07T21:20:25.895Z,73.48
2017-11-07T21:22:57.995Z,73.56
2017-11-07T21:25:29.604Z,73.45
2017-11-07T21:28:02.676Z,73.39
2017-11-07T21:30:33.992Z,73.55
2017-11-07T21:33:06.388Z,73.56
2017-11-07T21:35:37.668Z,73.60
2017-11-07T21:38:08.976Z,73.67
2017-11-07T21:40:40.593Z,73.64
2017-11-07T21:43:12.039Z,73.66
2017-11-07T21:45:43.335Z,73.71
2017-11-07T21:48:15.636Z,73.78
2017-11-07T21:50:46.922Z,73.77
2017-11-07T21:53:18.260Z,73.85
2017-11-07T21:55:49.692Z,74.06
2017-11-07T21:58:21.048Z,74.08
2017-11-07T22:00:52.796Z,74.08
2017-11-07T22:03:24.122Z,74.13
2017-11-07T22:05:55.749Z,74.11
2017-11-07T22:08:27.043Z,74.44
2017-11-07T22:10:58.499Z,74.57
2017-11-07T22:13:30.177Z,74.58
2017-11-07T22:16:02.786Z,74.45
2017-11-07T22:18:34.378Z,74.62
2017-11-07T22:21:05.874Z,74.61
2017-11-07T22:23:42.985Z,74.61
2017-11-07T22:26:14.675Z,74.63
2017-11-07T22:28:46.021Z,74.76
2017-11-07T22:31:17.418Z,74.86
2017-11-07T22:33:48.904Z,74.99
2017-11-07T22:36:20.242Z,74.89
2017-11-07T22:38:52.760Z,74.99
2017-11-07T22:41:24.067Z,74.85
2017-11-07T22:43:55.491Z,75.03
2017-11-07T22:46:26.824Z,75.06
2017-11-07T22:48:58.329Z,75.24
2017-11-07T22:51:30.037Z,75.24
2017-11-07T22:54:02.557Z,75.41
2017-11-07T22:56:33.874Z,75.45
2017-11-07T22:59:05.550Z,75.45
2017-11-07T23:01:36.857Z,75.28
2017-11-07T23:04:08.453Z,75.24
2017-11-07T23:06:39.792Z,75.17
2017-11-07T23:09:11.217Z,75.04
2017-11-07T23:11:42.792Z,74.80
2017-11-07T23:14:14.283Z,74.74
2017-11-07T23:16:45.573Z,74.47
2017-11-07T23:19:17.260Z,74.43
2017-11-07T23:21:48.665Z,74.38
2017-11-07T23:24:20.269Z,74.32
2017-11-07T23:26:51.677Z,74.31
2017-11-07T23:29:23.188Z,74.21
2017-11-07T23:31:54.782Z,74.25
2017-11-07T23:34:26.099Z,74.18
2017-11-07T23:36:57.931Z,74.09
2017-11-07T23:39:29.417Z,74.12
2017-11-07T23:42:01.117Z,74.17
2017-11-07T23:44:32.727Z,74.09
2017-11-07T23:47:04.913Z,74.34
2017-11-07T23:49:36.576Z,74.37
2017-11-07T23:52:09.241Z,74.46
2017-11-07T23:54:40.545Z,74.37
2017-11-07T23:57:12.663Z,74.27
2017-11-07T23:59:43.992Z,74.21
